sensor_id;sensor_type;location;lat;lon;timestamp;pressure;altitude;pressure_sealevel;temperature;humidity
60611;BME280;46439;51.164;13.572;2023-03-14T00:01:13;97976.98;;;11.69;87.39
60611;BME280;46439;51.164;13.572;2023-03-14T00:22:55;97947.95;;;12.04;86.94
60611;BME280;46439;51.164;13.572;2023-03-14T00:36:00;97933.83;;;12.81;86.11
60611;BME280;46439;51.164;13.572;2023-03-14T00:38:29;97934.15;;;12.95;86.01
60611;BME280;46439;51.164;13.572;2023-03-14T00:40:58;97940.00;;;12.92;86.36
60611;BME280;46439;51.164;13.572;2023-03-14T00:43:27;97934.71;;;12.84;86.41
60611;BME280;46439;51.164;13.572;2023-03-14T00:45:56;97934.05;;;12.75;86.59
60611;BME280;46439;51.164;13.572;2023-03-14T00:48:26;97931.91;;;12.64;86.62
60611;BME280;46439;51.164;13.572;2023-03-14T00:50:55;97930.48;;;12.52;86.68
60611;BME280;46439;51.164;13.572;2023-03-14T00:53:23;97937.61;;;12.43;86.84
60611;BME280;46439;51.164;13.572;2023-03-14T00:55:52;97943.00;;;12.36;86.94
60611;BME280;46439;51.164;13.572;2023-03-14T00:58:21;97946.24;;;12.30;87.12
60611;BME280;46439;51.164;13.572;2023-03-14T01:00:49;97952.93;;;12.22;87.26
60611;BME280;46439;51.164;13.572;2023-03-14T01:03:18;97960.27;;;12.19;87.49
60611;BME280;46439;51.164;13.572;2023-03-14T01:05:47;97954.56;;;12.18;87.61
60611;BME280;46439;51.164;13.572;2023-03-14T01:08:15;97946.53;;;12.16;87.69
60611;BME280;46439;51.164;13.572;2023-03-14T01:10:44;97946.74;;;12.14;87.67
60611;BME280;46439;51.164;13.572;2023-03-14T01:13:13;97941.27;;;12.10;87.96
60611;BME280;46439;51.164;13.572;2023-03-14T01:15:41;97932.43;;;12.04;87.77
60611;BME280;46439;51.164;13.572;2023-03-14T01:18:10;97923.06;;;11.99;87.78
60611;BME280;46439;51.164;13.572;2023-03-14T01:20:39;97915.23;;;11.97;87.95
60611;BME280;46439;51.164;13.572;2023-03-14T01:23:08;97919.08;;;11.94;87.96
60611;BME280;46439;51.164;13.572;2023-03-14T01:25:41;97922.75;;;11.91;87.94
60611;BME280;46439;51.164;13.572;2023-03-14T01:28:10;97925.46;;;11.90;88.02
60611;BME280;46439;51.164;13.572;2023-03-14T01:30:39;97932.89;;;11.87;88.14
60611;BME280;46439;51.164;13.572;2023-03-14T01:33:07;97930.19;;;11.81;88.10
60611;BME280;46439;51.164;13.572;2023-03-14T01:35:35;97932.53;;;11.75;88.03
60611;BME280;46439;51.164;13.572;2023-03-14T01:38:04;97933.80;;;11.69;87.88
60611;BME280;46439;51.164;13.572;2023-03-14T01:40:32;97930.91;;;11.63;87.79
60611;BME280;46439;51.164;13.572;2023-03-14T01:43:12;97929.98;;;11.60;87.84
60611;BME280;46439;51.164;13.572;2023-03-14T01:48:50;97925.11;;;11.53;87.84
60611;BME280;46439;51.164;13.572;2023-03-14T01:51:23;97929.73;;;11.48;87.78
60611;BME280;46439;51.164;13.572;2023-03-14T01:53:57;97929.17;;;11.47;87.78
60611;BME280;46439;51.164;13.572;2023-03-14T01:56:29;97934.16;;;11.47;88.02
60611;BME280;46439;51.164;13.572;2023-03-14T01:58:59;97932.48;;;11.46;88.07
60611;BME280;46439;51.164;13.572;2023-03-14T02:01:30;97932.45;;;11.47;88.25
60611;BME280;46439;51.164;13.572;2023-03-14T02:04:02;97933.59;;;11.48;88.31
60611;BME280;46439;51.164;13.572;2023-03-14T02:06:35;97935.02;;;11.47;88.12
60611;BME280;46439;51.164;13.572;2023-03-14T02:09:07;97936.77;;;11.50;88.36
60611;BME280;46439;51.164;13.572;2023-03-14T02:11:35;97930.77;;;11.55;88.48
60611;BME280;46439;51.164;13.572;2023-03-14T02:14:05;97930.83;;;11.55;88.49
60611;BME280;46439;51.164;13.572;2023-03-14T02:16:34;97933.04;;;11.57;88.52
60611;BME280;46439;51.164;13.572;2023-03-14T02:19:04;97927.35;;;11.59;88.63
60611;BME280;46439;51.164;13.572;2023-03-14T02:21:42;97924.10;;;11.59;88.68
60611;BME280;46439;51.164;13.572;2023-03-14T02:24:17;97923.38;;;11.60;88.68
60611;BME280;46439;51.164;13.572;2023-03-14T02:29:51;97918.15;;;11.66;88.84
60611;BME280;46439;51.164;13.572;2023-03-14T02:32:21;97908.64;;;11.63;88.85
60611;BME280;46439;51.164;13.572;2023-03-14T02:34:54;97903.46;;;11.62;88.76
60611;BME280;46439;51.164;13.572;2023-03-14T02:37:25;97910.90;;;11.58;88.63
60611;BME280;46439;51.164;13.572;2023-03-14T02:39:57;97911.86;;;11.52;88.35
60611;BME280;46439;51.164;13.572;2023-03-14T02:42:25;97921.27;;;11.46;88.48
60611;BME280;46439;51.164;13.572;2023-03-14T02:44:57;97925.05;;;11.45;88.41
60611;BME280;46439;51.164;13.572;2023-03-14T02:47:30;97920.24;;;11.44;88.46
60611;BME280;46439;51.164;13.572;2023-03-14T02:50:01;97920.48;;;11.40;88.36
60611;BME280;46439;51.164;13.572;2023-03-14T02:52:30;97916.30;;;11.39;88.42
60611;BME280;46439;51.164;13.572;2023-03-14T02:57:29;97918.69;;;11.40;88.44
60611;BME280;46439;51.164;13.572;2023-03-14T02:59:59;97911.84;;;11.40;88.52
60611;BME280;46439;51.164;13.572;2023-03-14T03:02:28;97918.17;;;11.41;88.62
60611;BME280;46439;51.164;13.572;2023-03-14T03:04:57;97905.85;;;11.43;88.61
60611;BME280;46439;51.164;13.572;2023-03-14T03:07:26;97898.75;;;11.42;88.64
60611;BME280;46439;51.164;13.572;2023-03-14T03:09:54;97900.48;;;11.42;88.61
60611;BME280;46439;51.164;13.572;2023-03-14T03:12:23;97901.73;;;11.42;88.55
60611;BME280;46439;51.164;13.572;2023-03-14T03:14:52;97897.02;;;11.44;88.66
60611;BME280;46439;51.164;13.572;2023-03-14T03:17:20;97892.23;;;11.45;88.80
60611;BME280;46439;51.164;13.572;2023-03-14T03:19:49;97889.89;;;11.47;88.83
60611;BME280;46439;51.164;13.572;2023-03-14T03:22:17;97891.73;;;11.47;88.83
60611;BME280;46439;51.164;13.572;2023-03-14T03:24:46;97899.30;;;11.47;88.69
60611;BME280;46439;51.164;13.572;2023-03-14T03:27:15;97899.10;;;11.48;88.85
60611;BME280;46439;51.164;13.572;2023-03-14T03:29:43;97892.98;;;11.49;88.90
60611;BME280;46439;51.164;13.572;2023-03-14T03:32:12;97885.73;;;11.49;88.93
60611;BME280;46439;51.164;13.572;2023-03-14T03:34:40;97883.92;;;11.50;88.92
60611;BME280;46439;51.164;13.572;2023-03-14T03:37:09;97885.80;;;11.50;88.92
60611;BME280;46439;51.164;13.572;2023-03-14T03:39:37;97887.23;;;11.51;88.84
60611;BME280;46439;51.164;13.572;2023-03-14T03:42:06;97893.95;;;11.49;88.89
60611;BME280;46439;51.164;13.572;2023-03-14T03:44:35;97902.61;;;11.48;88.80
60611;BME280;46439;51.164;13.572;2023-03-14T03:47:04;97905.56;;;11.47;88.86
60611;BME280;46439;51.164;13.572;2023-03-14T03:49:33;97903.40;;;11.44;88.72
60611;BME280;46439;51.164;13.572;2023-03-14T03:52:02;97904.03;;;11.44;88.85
60611;BME280;46439;51.164;13.572;2023-03-14T03:54:30;97894.94;;;11.43;88.67
60611;BME280;46439;51.164;13.572;2023-03-14T03:56:59;97897.71;;;11.42;88.68
60611;BME280;46439;51.164;13.572;2023-03-14T03:59:28;97896.66;;;11.40;88.66
60611;BME280;46439;51.164;13.572;2023-03-14T04:01:56;97896.68;;;11.41;88.80
60611;BME280;46439;51.164;13.572;2023-03-14T04:04:25;97884.67;;;11.41;88.73
60611;BME280;46439;51.164;13.572;2023-03-14T04:06:53;97871.16;;;11.40;88.64
60611;BME280;46439;51.164;13.572;2023-03-14T04:09:22;97873.57;;;11.39;88.76
60611;BME280;46439;51.164;13.572;2023-03-14T04:11:50;97878.30;;;11.39;88.72
60611;BME280;46439;51.164;13.572;2023-03-14T04:14:19;97882.21;;;11.37;88.60
60611;BME280;46439;51.164;13.572;2023-03-14T04:16:48;97885.56;;;11.35;88.68
60611;BME280;46439;51.164;13.572;2023-03-14T04:19:16;97881.66;;;11.33;88.67
60611;BME280;46439;51.164;13.572;2023-03-14T04:21:45;97881.27;;;11.33;88.54
60611;BME280;46439;51.164;13.572;2023-03-14T04:24:15;97882.48;;;11.34;88.65
60611;BME280;46439;51.164;13.572;2023-03-14T04:26:44;97880.11;;;11.34;88.74
60611;BME280;46439;51.164;13.572;2023-03-14T04:29:12;97875.34;;;11.33;88.72
60611;BME280;46439;51.164;13.572;2023-03-14T04:31:41;97871.64;;;11.33;88.65
60611;BME280;46439;51.164;13.572;2023-03-14T04:34:10;97867.48;;;11.33;88.60
60611;BME280;46439;51.164;13.572;2023-03-14T04:36:38;97867.37;;;11.33;88.66
60611;BME280;46439;51.164;13.572;2023-03-14T04:39:07;97867.11;;;11.31;88.61
60611;BME280;46439;51.164;13.572;2023-03-14T04:41:36;97868.13;;;11.30;88.62
60611;BME280;46439;51.164;13.572;2023-03-14T04:44:04;97868.21;;;11.29;88.56
60611;BME280;46439;51.164;13.572;2023-03-14T04:46:33;97865.35;;;11.27;88.44
60611;BME280;46439;51.164;13.572;2023-03-14T04:49:01;97855.58;;;11.25;88.37
60611;BME280;46439;51.164;13.572;2023-03-14T04:51:30;97856.95;;;11.23;88.33
60611;BME280;46439;51.164;13.572;2023-03-14T04:53:58;97858.67;;;11.21;88.28
60611;BME280;46439;51.164;13.572;2023-03-14T04:56:27;97856.02;;;11.19;88.29
60611;BME280;46439;51.164;13.572;2023-03-14T04:58:56;97850.27;;;11.15;88.25
60611;BME280;46439;51.164;13.572;2023-03-14T05:01:24;97846.52;;;11.14;88.08
60611;BME280;46439;51.164;13.572;2023-03-14T05:03:53;97842.17;;;11.12;88.29
60611;BME280;46439;51.164;13.572;2023-03-14T05:06:21;97829.86;;;11.11;88.20
60611;BME280;46439;51.164;13.572;2023-03-14T05:08:50;97830.64;;;11.09;88.21
60611;BME280;46439;51.164;13.572;2023-03-14T05:11:19;97841.34;;;11.10;88.37
60611;BME280;46439;51.164;13.572;2023-03-14T05:13:47;97849.56;;;11.10;88.32
60611;BME280;46439;51.164;13.572;2023-03-14T05:16:16;97844.75;;;11.10;88.33
60611;BME280;46439;51.164;13.572;2023-03-14T05:18:44;97842.94;;;11.08;88.40
60611;BME280;46439;51.164;13.572;2023-03-14T05:21:13;97853.85;;;11.07;88.28
60611;BME280;46439;51.164;13.572;2023-03-14T05:23:41;97859.04;;;11.05;88.34
60611;BME280;46439;51.164;13.572;2023-03-14T05:26:10;97855.09;;;11.02;88.25
60611;BME280;46439;51.164;13.572;2023-03-14T05:28:38;97848.46;;;11.03;88.19
60611;BME280;46439;51.164;13.572;2023-03-14T05:31:10;97854.56;;;11.05;88.23
60611;BME280;46439;51.164;13.572;2023-03-14T05:33:38;97848.48;;;11.04;88.41
60611;BME280;46439;51.164;13.572;2023-03-14T05:36:08;97845.27;;;11.03;88.22
60611;BME280;46439;51.164;13.572;2023-03-14T05:38:37;97847.41;;;11.02;88.27
60611;BME280;46439;51.164;13.572;2023-03-14T05:41:06;97841.85;;;11.02;88.21
60611;BME280;46439;51.164;13.572;2023-03-14T05:43:34;97830.45;;;11.01;88.22
60611;BME280;46439;51.164;13.572;2023-03-14T05:46:03;97832.70;;;11.00;88.30
60611;BME280;46439;51.164;13.572;2023-03-14T05:48:32;97825.92;;;11.02;88.28
60611;BME280;46439;51.164;13.572;2023-03-14T05:51:01;97823.55;;;11.05;88.30
60611;BME280;46439;51.164;13.572;2023-03-14T05:53:30;97826.58;;;11.06;88.37
60611;BME280;46439;51.164;13.572;2023-03-14T05:55:59;97828.08;;;11.08;88.42
60611;BME280;46439;51.164;13.572;2023-03-14T05:58:27;97831.54;;;11.11;88.54
60611;BME280;46439;51.164;13.572;2023-03-14T06:00:55;97840.05;;;11.14;88.62
60611;BME280;46439;51.164;13.572;2023-03-14T06:03:24;97849.00;;;11.13;88.57
60611;BME280;46439;51.164;13.572;2023-03-14T06:05:53;97846.02;;;11.11;88.55
60611;BME280;46439;51.164;13.572;2023-03-14T06:08:21;97851.43;;;11.12;88.28
60611;BME280;46439;51.164;13.572;2023-03-14T06:10:50;97851.70;;;11.16;88.47
60611;BME280;46439;51.164;13.572;2023-03-14T06:13:19;97859.48;;;11.21;88.57
60611;BME280;46439;51.164;13.572;2023-03-14T06:15:47;97852.23;;;11.22;88.63
60611;BME280;46439;51.164;13.572;2023-03-14T06:18:16;97851.27;;;11.26;88.74
60611;BME280;46439;51.164;13.572;2023-03-14T06:20:44;97856.05;;;11.29;88.91
60611;BME280;46439;51.164;13.572;2023-03-14T06:23:13;97851.61;;;11.28;88.86
60611;BME280;46439;51.164;13.572;2023-03-14T06:25:41;97853.86;;;11.28;88.75
60611;BME280;46439;51.164;13.572;2023-03-14T06:28:10;97844.28;;;11.27;88.71
60611;BME280;46439;51.164;13.572;2023-03-14T06:30:38;97852.80;;;11.26;88.52
60611;BME280;46439;51.164;13.572;2023-03-14T06:33:07;97860.80;;;11.25;88.40
60611;BME280;46439;51.164;13.572;2023-03-14T06:35:35;97861.69;;;11.27;88.64
60611;BME280;46439;51.164;13.572;2023-03-14T06:38:04;97872.30;;;11.31;88.65
60611;BME280;46439;51.164;13.572;2023-03-14T06:40:33;97874.51;;;11.33;88.79
60611;BME280;46439;51.164;13.572;2023-03-14T06:43:01;97875.91;;;11.35;88.89
60611;BME280;46439;51.164;13.572;2023-03-14T06:45:30;97872.34;;;11.35;88.66
60611;BME280;46439;51.164;13.572;2023-03-14T06:47:58;97872.42;;;11.33;88.65
60611;BME280;46439;51.164;13.572;2023-03-14T06:50:26;97871.32;;;11.33;88.46
60611;BME280;46439;51.164;13.572;2023-03-14T06:52:55;97878.62;;;11.33;88.72
60611;BME280;46439;51.164;13.572;2023-03-14T06:55:24;97872.94;;;11.35;88.64
60611;BME280;46439;51.164;13.572;2023-03-14T06:57:52;97875.83;;;11.36;88.53
60611;BME280;46439;51.164;13.572;2023-03-14T07:00:22;97871.42;;;11.38;88.62
60611;BME280;46439;51.164;13.572;2023-03-14T07:02:50;97880.07;;;11.38;88.51
60611;BME280;46439;51.164;13.572;2023-03-14T07:05:19;97881.35;;;11.39;88.72
60611;BME280;46439;51.164;13.572;2023-03-14T07:07:48;97877.61;;;11.39;88.46
60611;BME280;46439;51.164;13.572;2023-03-14T07:10:17;97878.17;;;11.38;88.44
60611;BME280;46439;51.164;13.572;2023-03-14T07:12:46;97877.98;;;11.36;88.43
60611;BME280;46439;51.164;13.572;2023-03-14T07:15:14;97873.13;;;11.36;88.42
60611;BME280;46439;51.164;13.572;2023-03-14T07:17:43;97875.16;;;11.38;88.35
60611;BME280;46439;51.164;13.572;2023-03-14T07:20:12;97877.25;;;11.40;88.36
60611;BME280;46439;51.164;13.572;2023-03-14T07:22:41;97875.07;;;11.41;88.51
60611;BME280;46439;51.164;13.572;2023-03-14T07:25:10;97876.55;;;11.42;88.46
60611;BME280;46439;51.164;13.572;2023-03-14T07:27:40;97877.39;;;11.44;88.49
60611;BME280;46439;51.164;13.572;2023-03-14T07:30:12;97873.61;;;11.46;88.54
60611;BME280;46439;51.164;13.572;2023-03-14T07:32:41;97880.96;;;11.48;88.51
60611;BME280;46439;51.164;13.572;2023-03-14T07:35:10;97882.20;;;11.53;88.55
60611;BME280;46439;51.164;13.572;2023-03-14T07:37:39;97880.06;;;11.56;88.62
60611;BME280;46439;51.164;13.572;2023-03-14T07:40:10;97872.77;;;11.59;88.67
60611;BME280;46439;51.164;13.572;2023-03-14T07:42:43;97874.68;;;11.62;88.66
60611;BME280;46439;51.164;13.572;2023-03-14T07:45:12;97872.80;;;11.68;88.66
60611;BME280;46439;51.164;13.572;2023-03-14T07:47:41;97875.74;;;11.72;88.80
60611;BME280;46439;51.164;13.572;2023-03-14T07:50:11;97875.84;;;11.76;88.74
60611;BME280;46439;51.164;13.572;2023-03-14T07:52:40;97882.17;;;11.82;88.83
60611;BME280;46439;51.164;13.572;2023-03-14T07:55:09;97886.71;;;11.86;88.85
60611;BME280;46439;51.164;13.572;2023-03-14T07:57:38;97883.58;;;11.89;88.93
60611;BME280;46439;51.164;13.572;2023-03-14T08:00:09;97876.06;;;11.93;88.86
60611;BME280;46439;51.164;13.572;2023-03-14T08:02:39;97879.16;;;11.97;88.85
60611;BME280;46439;51.164;13.572;2023-03-14T08:05:08;97877.59;;;12.01;88.84
60611;BME280;46439;51.164;13.572;2023-03-14T08:07:37;97872.42;;;12.05;88.95
60611;BME280;46439;51.164;13.572;2023-03-14T08:10:08;97864.70;;;12.09;88.87
60611;BME280;46439;51.164;13.572;2023-03-14T08:12:37;97864.91;;;12.11;88.97
60611;BME280;46439;51.164;13.572;2023-03-14T08:15:07;97861.55;;;12.13;88.79
60611;BME280;46439;51.164;13.572;2023-03-14T08:17:35;97865.04;;;12.15;88.81
60611;BME280;46439;51.164;13.572;2023-03-14T08:20:05;97863.34;;;12.16;88.59
60611;BME280;46439;51.164;13.572;2023-03-14T08:22:36;97863.67;;;12.20;88.67
60611;BME280;46439;51.164;13.572;2023-03-14T08:25:07;97857.29;;;12.23;88.73
60611;BME280;46439;51.164;13.572;2023-03-14T08:27:36;97853.45;;;12.25;88.73
60611;BME280;46439;51.164;13.572;2023-03-14T08:30:13;97854.80;;;12.28;88.75
60611;BME280;46439;51.164;13.572;2023-03-14T08:32:42;97846.70;;;12.31;88.71
60611;BME280;46439;51.164;13.572;2023-03-14T08:35:11;97848.27;;;12.34;88.74
60611;BME280;46439;51.164;13.572;2023-03-14T08:37:40;97846.55;;;12.36;88.73
60611;BME280;46439;51.164;13.572;2023-03-14T08:40:11;97849.80;;;12.36;88.78
60611;BME280;46439;51.164;13.572;2023-03-14T08:42:40;97840.60;;;12.38;88.66
60611;BME280;46439;51.164;13.572;2023-03-14T08:45:13;97848.79;;;12.42;88.78
60611;BME280;46439;51.164;13.572;2023-03-14T08:47:42;97842.73;;;12.45;88.86
60611;BME280;46439;51.164;13.572;2023-03-14T08:50:12;97847.85;;;12.47;88.80
60611;BME280;46439;51.164;13.572;2023-03-14T08:52:41;97851.63;;;12.49;88.75
60611;BME280;46439;51.164;13.572;2023-03-14T08:55:11;97854.06;;;12.53;88.80
60611;BME280;46439;51.164;13.572;2023-03-14T08:57:39;97854.61;;;12.56;88.82
60611;BME280;46439;51.164;13.572;2023-03-14T09:00:10;97849.45;;;12.61;88.74
60611;BME280;46439;51.164;13.572;2023-03-14T09:02:40;97856.60;;;12.67;89.05
60611;BME280;46439;51.164;13.572;2023-03-14T09:05:10;97860.05;;;12.73;88.99
60611;BME280;46439;51.164;13.572;2023-03-14T09:07:39;97861.48;;;12.81;89.07
60611;BME280;46439;51.164;13.572;2023-03-14T09:10:10;97854.02;;;12.88;89.10
60611;BME280;46439;51.164;13.572;2023-03-14T09:12:39;97851.44;;;12.92;89.14
60611;BME280;46439;51.164;13.572;2023-03-14T09:15:09;97857.07;;;12.98;89.14
60611;BME280;46439;51.164;13.572;2023-03-14T09:17:38;97857.09;;;13.04;89.22
60611;BME280;46439;51.164;13.572;2023-03-14T09:20:08;97861.30;;;13.12;89.26
60611;BME280;46439;51.164;13.572;2023-03-14T09:22:37;97858.27;;;13.20;89.39
60611;BME280;46439;51.164;13.572;2023-03-14T09:25:07;97862.89;;;13.27;89.40
60611;BME280;46439;51.164;13.572;2023-03-14T09:27:35;97860.14;;;13.34;89.41
60611;BME280;46439;51.164;13.572;2023-03-14T09:30:06;97861.52;;;13.42;89.46
60611;BME280;46439;51.164;13.572;2023-03-14T09:32:34;97860.63;;;13.48;89.47
60611;BME280;46439;51.164;13.572;2023-03-14T09:35:03;97866.96;;;13.52;89.45
60611;BME280;46439;51.164;13.572;2023-03-14T09:37:32;97861.88;;;13.48;89.21
60611;BME280;46439;51.164;13.572;2023-03-14T09:40:01;97867.41;;;13.45;89.03
60611;BME280;46439;51.164;13.572;2023-03-14T09:42:38;97875.75;;;13.45;88.98
60611;BME280;46439;51.164;13.572;2023-03-14T09:45:15;97874.89;;;13.41;88.83
60611;BME280;46439;51.164;13.572;2023-03-14T09:47:46;97875.64;;;13.37;88.69
60611;BME280;46439;51.164;13.572;2023-03-14T09:50:17;97869.67;;;13.34;88.65
60611;BME280;46439;51.164;13.572;2023-03-14T09:52:47;97866.83;;;13.29;88.48
60611;BME280;46439;51.164;13.572;2023-03-14T09:55:19;97867.57;;;13.25;88.43
60611;BME280;46439;51.164;13.572;2023-03-14T09:57:53;97874.77;;;13.21;88.37
60611;BME280;46439;51.164;13.572;2023-03-14T10:00:27;97881.31;;;13.17;88.29
60611;BME280;46439;51.164;13.572;2023-03-14T10:02:59;97880.95;;;13.14;88.27
60611;BME280;46439;51.164;13.572;2023-03-14T10:05:30;97874.55;;;13.11;88.15
60611;BME280;46439;51.164;13.572;2023-03-14T10:07:59;97877.93;;;13.09;88.16
60611;BME280;46439;51.164;13.572;2023-03-14T10:10:28;97877.23;;;13.09;88.13
60611;BME280;46439;51.164;13.572;2023-03-14T10:13:05;97874.39;;;13.07;88.14
60611;BME280;46439;51.164;13.572;2023-03-14T10:15:39;97873.86;;;13.08;88.24
60611;BME280;46439;51.164;13.572;2023-03-14T10:18:13;97875.47;;;13.07;88.14
60611;BME280;46439;51.164;13.572;2023-03-14T10:20:43;97874.50;;;13.08;88.00
60611;BME280;46439;51.164;13.572;2023-03-14T10:23:24;97876.35;;;13.11;88.12
60611;BME280;46439;51.164;13.572;2023-03-14T10:26:05;97879.38;;;13.11;88.10
60611;BME280;46439;51.164;13.572;2023-03-14T10:28:38;97876.61;;;13.12;88.07
60611;BME280;46439;51.164;13.572;2023-03-14T10:31:07;97875.33;;;13.13;88.00
60611;BME280;46439;51.164;13.572;2023-03-14T10:33:37;97878.80;;;13.16;88.07
60611;BME280;46439;51.164;13.572;2023-03-14T10:36:14;97873.73;;;13.17;88.13
60611;BME280;46439;51.164;13.572;2023-03-14T10:39:21;97874.20;;;13.16;87.99
60611;BME280;46439;51.164;13.572;2023-03-14T10:41:54;97872.02;;;13.15;87.99
60611;BME280;46439;51.164;13.572;2023-03-14T10:44:26;97867.30;;;13.15;87.95
60611;BME280;46439;51.164;13.572;2023-03-14T10:47:03;97870.43;;;13.14;87.84
60611;BME280;46439;51.164;13.572;2023-03-14T10:49:33;97865.79;;;13.15;87.84
60611;BME280;46439;51.164;13.572;2023-03-14T10:52:19;97865.14;;;13.16;87.88
60611;BME280;46439;51.164;13.572;2023-03-14T10:54:52;97863.77;;;13.17;87.92
60611;BME280;46439;51.164;13.572;2023-03-14T10:57:22;97861.15;;;13.20;87.91
60611;BME280;46439;51.164;13.572;2023-03-14T10:59:51;97859.73;;;13.22;87.98
60611;BME280;46439;51.164;13.572;2023-03-14T11:02:37;97858.58;;;13.25;87.82
60611;BME280;46439;51.164;13.572;2023-03-14T11:05:23;97860.93;;;13.29;87.85
60611;BME280;46439;51.164;13.572;2023-03-14T11:07:56;97864.23;;;13.33;87.98
60611;BME280;46439;51.164;13.572;2023-03-14T11:10:33;97866.21;;;13.37;88.00
60611;BME280;46439;51.164;13.572;2023-03-14T11:13:14;97862.22;;;13.42;88.04
60611;BME280;46439;51.164;13.572;2023-03-14T11:15:49;97860.58;;;13.45;88.09
60611;BME280;46439;51.164;13.572;2023-03-14T11:21:15;97858.59;;;13.64;88.24
60611;BME280;46439;51.164;13.572;2023-03-14T11:23:53;97854.95;;;13.72;88.30
60611;BME280;46439;51.164;13.572;2023-03-14T11:26:30;97858.15;;;13.81;88.43
60611;BME280;46439;51.164;13.572;2023-03-14T11:29:12;97858.52;;;13.86;88.38
60611;BME280;46439;51.164;13.572;2023-03-14T11:31:44;97858.52;;;13.89;88.20
60611;BME280;46439;51.164;13.572;2023-03-14T11:34:17;97851.06;;;13.91;88.30
60611;BME280;46439;51.164;13.572;2023-03-14T11:36:53;97849.96;;;13.94;88.26
60611;BME280;46439;51.164;13.572;2023-03-14T11:39:29;97847.57;;;13.98;88.31
60611;BME280;46439;51.164;13.572;2023-03-14T11:42:00;97843.05;;;14.00;88.27
60611;BME280;46439;51.164;13.572;2023-03-14T11:44:32;97843.90;;;14.01;88.12
60611;BME280;46439;51.164;13.572;2023-03-14T11:47:05;97842.90;;;13.97;88.01
60611;BME280;46439;51.164;13.572;2023-03-14T11:49:38;97839.90;;;13.95;87.94
60611;BME280;46439;51.164;13.572;2023-03-14T11:52:12;97838.22;;;13.96;87.88
60611;BME280;46439;51.164;13.572;2023-03-14T11:54:45;97835.79;;;13.98;87.95
60611;BME280;46439;51.164;13.572;2023-03-14T11:57:19;97833.57;;;14.02;87.92
60611;BME280;46439;51.164;13.572;2023-03-14T11:59:52;97835.05;;;14.09;87.91
60611;BME280;46439;51.164;13.572;2023-03-14T12:02:27;97826.52;;;14.16;88.05
60611;BME280;46439;51.164;13.572;2023-03-14T12:05:25;97825.27;;;14.23;88.07
60611;BME280;46439;51.164;13.572;2023-03-14T12:08:29;97818.16;;;14.33;88.24
60611;BME280;46439;51.164;13.572;2023-03-14T12:11:03;97817.29;;;14.48;88.37
60611;BME280;46439;51.164;13.572;2023-03-14T12:13:36;97822.67;;;14.63;88.63
60611;BME280;46439;51.164;13.572;2023-03-14T12:16:10;97813.30;;;14.71;88.69
60611;BME280;46439;51.164;13.572;2023-03-14T12:18:48;97816.48;;;14.76;88.58
60611;BME280;46439;51.164;13.572;2023-03-14T12:21:17;97818.17;;;14.75;88.37
60611;BME280;46439;51.164;13.572;2023-03-14T12:23:51;97819.09;;;14.73;88.23
60611;BME280;46439;51.164;13.572;2023-03-14T12:26:22;97813.31;;;14.73;88.15
60611;BME280;46439;51.164;13.572;2023-03-14T12:29:09;97819.69;;;14.75;88.15
60611;BME280;46439;51.164;13.572;2023-03-14T12:31:40;97807.93;;;14.79;88.00
60611;BME280;46439;51.164;13.572;2023-03-14T12:37:12;97794.81;;;14.89;88.10
60611;BME280;46439;51.164;13.572;2023-03-14T12:39:58;97790.52;;;14.95;88.10
60611;BME280;46439;51.164;13.572;2023-03-14T12:42:40;97789.92;;;14.96;88.02
60611;BME280;46439;51.164;13.572;2023-03-14T12:45:24;97802.88;;;14.92;87.88
60611;BME280;46439;51.164;13.572;2023-03-14T12:47:55;97801.81;;;14.88;87.79
60611;BME280;46439;51.164;13.572;2023-03-14T12:50:30;97813.46;;;14.84;87.66
60611;BME280;46439;51.164;13.572;2023-03-14T12:53:10;97821.24;;;14.79;87.43
60611;BME280;46439;51.164;13.572;2023-03-14T12:55:48;97808.30;;;14.77;87.30
60611;BME280;46439;51.164;13.572;2023-03-14T12:58:26;97799.23;;;14.76;87.27
60611;BME280;46439;51.164;13.572;2023-03-14T13:01:00;97795.88;;;14.74;87.28
60611;BME280;46439;51.164;13.572;2023-03-14T13:03:39;97792.26;;;14.74;87.23
60611;BME280;46439;51.164;13.572;2023-03-14T13:06:11;97789.48;;;14.76;87.27
60611;BME280;46439;51.164;13.572;2023-03-14T13:08:42;97792.23;;;14.77;87.29
60611;BME280;46439;51.164;13.572;2023-03-14T13:11:15;97786.23;;;14.77;87.25
60611;BME280;46439;51.164;13.572;2023-03-14T13:13:47;97785.23;;;14.80;87.28
60611;BME280;46439;51.164;13.572;2023-03-14T13:16:20;97782.15;;;14.81;87.23
60611;BME280;46439;51.164;13.572;2023-03-14T13:18:49;97776.40;;;14.84;87.28
60611;BME280;46439;51.164;13.572;2023-03-14T13:21:21;97774.33;;;14.90;87.39
60611;BME280;46439;51.164;13.572;2023-03-14T13:23:58;97773.66;;;14.93;87.40
60611;BME280;46439;51.164;13.572;2023-03-14T13:26:34;97772.76;;;14.97;87.33
60611;BME280;46439;51.164;13.572;2023-03-14T13:29:11;97769.43;;;14.94;87.35
60611;BME280;46439;51.164;13.572;2023-03-14T13:31:46;97768.02;;;14.96;87.21
60611;BME280;46439;51.164;13.572;2023-03-14T13:34:15;97762.21;;;14.98;87.18
60611;BME280;46439;51.164;13.572;2023-03-14T13:36:44;97761.15;;;14.99;87.12
60611;BME280;46439;51.164;13.572;2023-03-14T13:39:16;97763.17;;;15.01;87.09
60611;BME280;46439;51.164;13.572;2023-03-14T13:41:46;97758.52;;;15.04;87.20
60611;BME280;46439;51.164;13.572;2023-03-14T13:44:19;97763.64;;;15.07;87.27
60611;BME280;46439;51.164;13.572;2023-03-14T13:46:51;97761.41;;;15.05;87.01
60611;BME280;46439;51.164;13.572;2023-03-14T13:49:23;97758.75;;;15.07;87.01
60611;BME280;46439;51.164;13.572;2023-03-14T13:51:53;97753.16;;;15.09;87.02
60611;BME280;46439;51.164;13.572;2023-03-14T13:54:22;97755.42;;;15.12;87.05